Time;durP1;ratioP1;P1;durP2;ratioP2;P2;SDS_P1;SDS_P2;PMS_P1;PMS_P2;Temp;Humidity;BMP_temperature;BMP_pressure;BME280_temperature;BME280_humidity;BME280_pressure;Samples;Min_cycle;Max_cycle;Signal;HPM_P1;HPM_P2
2020/12/09 00:01:40;;;;;;;24.75;11.60;;;5.20;74.40;;;;;;4899489;29;20059;-87
2020/12/09 00:04:06;;;;;;;25.08;10.45;;;5.10;74.00;;;;;;4900355;29;20059;-85
2020/12/09 00:06:36;;;;;;;22.20;10.45;;;5.10;74.10;;;;;;4899634;29;20503;-85
2020/12/09 00:09:05;;;;;;;24.02;11.57;;;5.10;74.00;;;;;;4899507;29;20079;-86
2020/12/09 00:11:31;;;;;;;18.45;9.10;;;5.10;74.00;;;;;;4915358;29;20133;-85
2020/12/09 00:13:57;;;;;;;22.10;10.70;;;5.10;73.80;;;;;;4883920;29;20493;-85
2020/12/09 00:16:23;;;;;;;21.42;10.52;;;5.10;74.00;;;;;;4899223;29;20063;-85
2020/12/09 00:18:48;;;;;;;21.85;10.80;;;5.10;73.90;;;;;;4899422;29;20049;-87
2020/12/09 00:21:21;;;;;;;26.25;12.07;;;5.00;73.80;;;;;;4909238;29;20039;-85
2020/12/09 00:23:48;;;;;;;24.45;12.25;;;5.00;74.10;;;;;;4903249;29;20031;-85
2020/12/09 00:26:19;;;;;;;25.88;12.43;;;5.00;74.20;;;;;;4909889;29;20051;-85
2020/12/09 00:28:46;;;;;;;24.40;11.07;;;5.00;74.20;;;;;;4898118;29;20060;-83
2020/12/09 00:31:14;;;;;;;23.42;10.57;;;5.10;74.70;;;;;;4915983;29;20087;-85
2020/12/09 00:33:40;;;;;;;24.77;10.82;;;5.10;74.30;;;;;;4916075;29;20024;-85
2020/12/09 00:36:05;;;;;;;26.05;11.48;;;5.00;74.20;;;;;;4909063;29;20059;-85
2020/12/09 00:38:31;;;;;;;21.25;11.32;;;5.10;74.20;;;;;;4900467;29;20158;-85
2020/12/09 00:40:57;;;;;;;27.33;11.55;;;5.10;74.10;;;;;;4899681;29;20120;-85
2020/12/09 00:43:22;;;;;;;27.48;12.77;;;5.00;74.30;;;;;;4915411;29;20055;-87
2020/12/09 00:45:48;;;;;;;22.52;10.63;;;5.00;74.40;;;;;;4914818;29;20088;-87
2020/12/09 00:48:13;;;;;;;25.73;12.27;;;5.10;74.50;;;;;;4914838;29;20032;-86
2020/12/09 00:50:39;;;;;;;21.20;10.30;;;5.10;74.40;;;;;;4909083;29;20054;-86
2020/12/09 00:53:04;;;;;;;23.42;11.70;;;5.10;74.50;;;;;;4906204;29;20127;-87
2020/12/09 00:55:30;;;;;;;25.42;11.27;;;5.20;74.50;;;;;;4916428;29;20056;-88
2020/12/09 00:57:56;;;;;;;22.55;11.27;;;5.10;74.20;;;;;;4901377;29;20122;-87
2020/12/09 01:00:22;;;;;;;26.10;11.80;;;5.10;74.50;;;;;;4928945;29;20032;-88
2020/12/09 01:02:48;;;;;;;20.77;10.88;;;5.10;74.90;;;;;;4919872;29;20024;-87
2020/12/09 01:05:14;;;;;;;23.88;10.23;;;5.10;74.30;;;;;;4911383;29;20025;-86
2020/12/09 01:07:40;;;;;;;25.35;11.15;;;5.10;74.20;;;;;;4925896;29;20080;-85
2020/12/09 01:10:07;;;;;;;21.05;10.38;;;5.10;75.00;;;;;;4894492;29;20028;-86
2020/12/09 01:12:34;;;;;;;23.92;10.85;;;5.00;74.10;;;;;;4900379;29;20087;-86
2020/12/09 01:14:59;;;;;;;20.58;10.05;;;5.10;74.40;;;;;;4914842;29;20020;-86
2020/12/09 01:17:25;;;;;;;21.60;10.40;;;5.00;73.80;;;;;;4890263;29;20560;-86
2020/12/09 01:19:51;;;;;;;20.60;10.07;;;5.00;74.20;;;;;;4927954;29;20051;-86
2020/12/09 01:22:16;;;;;;;18.67;9.02;;;4.90;74.10;;;;;;4903566;29;20040;-85
2020/12/09 01:24:42;;;;;;;21.33;9.07;;;4.90;73.90;;;;;;4905136;29;20032;-86
2020/12/09 01:27:07;;;;;;;18.20;8.02;;;4.80;74.10;;;;;;4907056;29;20492;-85
2020/12/09 01:29:33;;;;;;;18.88;8.90;;;4.90;74.20;;;;;;4914614;29;20086;-86
2020/12/09 01:32:00;;;;;;;22.75;10.20;;;4.80;74.30;;;;;;4895638;29;20511;-85
2020/12/09 01:34:27;;;;;;;23.10;11.25;;;4.80;74.50;;;;;;4908268;29;20138;-86
2020/12/09 01:36:53;;;;;;;23.00;11.00;;;4.90;74.90;;;;;;4924107;29;20039;-86
2020/12/09 01:39:19;;;;;;;21.92;11.02;;;5.00;75.00;;;;;;4910984;29;20481;-86
2020/12/09 01:41:46;;;;;;;23.38;12.27;;;5.00;75.00;;;;;;4925108;29;20031;-85
2020/12/09 01:44:12;;;;;;;23.92;11.02;;;5.00;74.60;;;;;;4925125;29;20168;-86
2020/12/09 01:46:39;;;;;;;23.42;10.23;;;5.10;74.80;;;;;;4903432;29;20135;-85
2020/12/09 01:49:04;;;;;;;19.63;9.57;;;5.00;74.40;;;;;;4909510;29;20024;-85
2020/12/09 01:51:30;;;;;;;23.02;10.63;;;5.00;74.40;;;;;;4929973;29;20034;-85
2020/12/09 01:53:58;;;;;;;18.80;9.18;;;5.00;74.40;;;;;;4912542;29;20019;-86
2020/12/09 01:56:24;;;;;;;23.02;11.10;;;5.00;74.40;;;;;;4929008;29;20044;-86
2020/12/09 01:58:51;;;;;;;19.45;10.02;;;4.90;74.30;;;;;;4922322;29;20028;-86
2020/12/09 02:01:18;;;;;;;21.70;10.32;;;4.90;74.40;;;;;;4906375;29;20033;-86
2020/12/09 02:03:45;;;;;;;18.73;8.77;;;5.00;74.60;;;;;;4905761;29;20024;-85
2020/12/09 02:06:11;;;;;;;15.75;7.82;;;4.90;74.50;;;;;;4889779;29;20032;-86
2020/12/09 02:08:36;;;;;;;21.70;10.07;;;4.90;74.50;;;;;;4909304;29;20464;-86
2020/12/09 02:11:03;;;;;;;21.45;9.43;;;4.90;74.40;;;;;;4903312;29;20038;-85
2020/12/09 02:13:30;;;;;;;17.92;9.32;;;4.90;74.50;;;;;;4900765;29;20032;-86
2020/12/09 02:15:59;;;;;;;20.38;9.75;;;4.90;74.40;;;;;;4925574;29;20028;-86
2020/12/09 02:18:26;;;;;;;18.77;8.18;;;4.80;74.50;;;;;;4918214;29;20465;-86
2020/12/09 02:20:52;;;;;;;20.27;8.00;;;4.80;74.50;;;;;;4903958;29;20099;-86
2020/12/09 02:23:17;;;;;;;21.83;10.45;;;4.80;74.40;;;;;;4891916;29;20067;-87
2020/12/09 02:25:45;;;;;;;20.13;8.23;;;4.70;74.20;;;;;;4872771;29;20020;-86
2020/12/09 02:28:11;;;;;;;20.13;9.88;;;4.70;74.50;;;;;;4901166;29;20515;-86
2020/12/09 02:30:37;;;;;;;18.67;8.43;;;4.70;74.40;;;;;;4901206;29;20024;-86
2020/12/09 02:33:02;;;;;;;21.73;9.75;;;4.70;74.50;;;;;;4885373;29;20032;-85
2020/12/09 02:35:28;;;;;;;8.85;3.88;;;4.70;74.70;;;;;;4900936;29;20079;-85
2020/12/09 02:37:54;;;;;;;20.52;9.07;;;4.70;74.70;;;;;;4900892;29;20039;-85
2020/12/09 02:40:23;;;;;;;8.90;4.68;;;4.70;74.60;;;;;;4900617;29;20123;-84
2020/12/09 02:42:49;;;;;;;17.65;9.32;;;4.70;74.60;;;;;;4885426;29;20091;-84
2020/12/09 02:45:16;;;;;;;20.17;9.93;;;4.60;74.40;;;;;;4885494;29;20025;-85
2020/12/09 02:47:42;;;;;;;17.15;7.28;;;4.60;74.70;;;;;;4916285;29;20035;-85
2020/12/09 02:50:07;;;;;;;18.88;7.90;;;4.60;74.60;;;;;;4885653;29;20476;-85
2020/12/09 02:52:33;;;;;;;18.60;8.80;;;4.60;74.80;;;;;;4885221;29;20020;-84
2020/12/09 02:54:59;;;;;;;16.48;7.63;;;4.60;74.70;;;;;;4900803;29;20032;-84
2020/12/09 02:57:24;;;;;;;23.02;9.90;;;4.60;74.70;;;;;;4873245;29;20044;-85
2020/12/09 02:59:50;;;;;;;18.90;9.30;;;4.60;75.00;;;;;;4884439;29;20075;-85
2020/12/09 03:02:16;;;;;;;21.15;9.05;;;4.60;75.10;;;;;;4884669;29;20085;-85
2020/12/09 03:04:41;;;;;;;17.50;8.50;;;4.60;74.60;;;;;;4916707;29;20096;-89
2020/12/09 03:07:07;;;;;;;16.42;7.95;;;4.60;74.50;;;;;;4900675;29;20100;-90
2020/12/09 03:09:33;;;;;;;20.88;9.20;;;4.60;75.00;;;;;;4901851;29;20110;-90
2020/12/09 03:11:58;;;;;;;16.60;7.68;;;4.60;74.80;;;;;;4888486;29;20462;-84
2020/12/09 03:14:24;;;;;;;18.48;8.65;;;4.60;74.80;;;;;;4900072;29;20028;-84
2020/12/09 03:16:49;;;;;;;18.05;8.68;;;4.60;74.70;;;;;;4884833;29;20032;-84
2020/12/09 03:19:15;;;;;;;18.17;9.15;;;4.60;74.80;;;;;;4881075;29;20080;-84
2020/12/09 03:21:41;;;;;;;16.98;6.25;;;4.50;74.80;;;;;;4865996;29;20496;-84
2020/12/09 03:24:07;;;;;;;17.90;7.90;;;4.50;74.90;;;;;;4850565;29;20025;-84
2020/12/09 03:26:33;;;;;;;17.08;8.50;;;4.50;74.90;;;;;;4896694;29;20108;-84
2020/12/09 03:28:59;;;;;;;18.60;9.00;;;4.50;74.80;;;;;;4866267;29;20112;-84
2020/12/09 03:31:24;;;;;;;19.02;8.38;;;4.50;75.10;;;;;;4881414;29;20123;-86
2020/12/09 03:33:50;;;;;;;21.15;9.10;;;4.50;75.00;;;;;;4865932;29;20104;-86
2020/12/09 03:36:17;;;;;;;22.38;10.52;;;4.50;75.00;;;;;;4881194;29;20043;-86
2020/12/09 03:38:42;;;;;;;22.73;10.27;;;4.60;75.40;;;;;;4881337;29;20485;-85
2020/12/09 03:41:08;;;;;;;22.60;10.35;;;4.70;75.80;;;;;;4850196;29;20100;-85
2020/12/09 03:43:33;;;;;;;21.50;10.32;;;4.70;75.60;;;;;;4850220;29;20092;-87
2020/12/09 03:45:59;;;;;;;19.77;9.65;;;4.80;75.50;;;;;;4881179;29;20041;-87
2020/12/09 03:48:25;;;;;;;22.48;9.80;;;4.80;75.30;;;;;;4866160;29;20029;-87
2020/12/09 03:50:51;;;;;;;23.95;9.63;;;4.80;75.40;;;;;;4865483;29;20545;-86
2020/12/09 03:53:18;;;;;;;20.38;9.18;;;4.90;75.40;;;;;;4850362;29;20028;-88
2020/12/09 03:55:43;;;;;;;19.65;9.10;;;4.90;75.40;;;;;;4880867;29;20041;-87
2020/12/09 03:58:09;;;;;;;21.88;10.60;;;4.80;74.90;;;;;;4850569;29;20112;-88
2020/12/09 04:00:34;;;;;;;20.35;9.50;;;4.80;75.00;;;;;;4881088;29;20021;-87
2020/12/09 04:03:00;;;;;;;19.95;9.27;;;4.80;75.00;;;;;;4896460;29;20060;-86
2020/12/09 04:05:26;;;;;;;24.60;11.70;;;4.80;75.70;;;;;;4865239;29;20021;-86
2020/12/09 04:07:51;;;;;;;16.90;7.88;;;4.80;75.20;;;;;;4880865;29;20039;-88
2020/12/09 04:10:18;;;;;;;19.83;9.10;;;4.80;75.10;;;;;;4880753;29;20039;-88
2020/12/09 04:12:43;;;;;;;20.73;9.45;;;4.70;74.80;;;;;;4896136;29;20032;-88
2020/12/09 04:15:10;;;;;;;21.90;9.57;;;4.70;75.00;;;;;;4880997;29;20543;-87
2020/12/09 04:17:35;;;;;;;18.52;8.30;;;4.70;75.80;;;;;;4865601;29;20489;-87
2020/12/09 04:20:01;;;;;;;18.95;8.00;;;4.70;74.90;;;;;;4897601;29;20047;-87
2020/12/09 04:22:26;;;;;;;14.82;6.57;;;4.70;75.00;;;;;;4899704;29;20028;-88
2020/12/09 04:24:52;;;;;;;14.38;6.32;;;4.60;74.80;;;;;;4883928;29;20549;-87
2020/12/09 04:27:18;;;;;;;22.45;10.02;;;4.60;74.90;;;;;;4868878;29;20473;-83
2020/12/09 04:29:43;;;;;;;21.05;8.63;;;4.60;74.90;;;;;;4899238;29;20389;-84
2020/12/09 04:32:09;;;;;;;22.40;9.45;;;4.60;75.50;;;;;;4899611;29;20080;-83
2020/12/09 04:34:35;;;;;;;22.20;10.45;;;4.60;75.50;;;;;;4899579;29;20034;-86
2020/12/09 04:37:01;;;;;;;23.00;9.85;;;4.60;75.60;;;;;;4914991;29;20441;-87
2020/12/09 04:39:27;;;;;;;22.65;10.50;;;4.70;75.30;;;;;;4899964;29;20059;-89
2020/12/09 04:41:53;;;;;;;20.35;9.75;;;4.70;75.30;;;;;;4884122;29;20370;-86
2020/12/09 04:44:19;;;;;;;25.27;10.95;;;4.70;75.60;;;;;;4889527;29;20039;-87
2020/12/09 04:46:49;;;;;;;20.23;10.55;;;4.70;75.40;;;;;;4914877;29;20028;-87
2020/12/09 04:49:23;;;;;;;9.70;4.60;;;4.70;75.50;;;;;;4914526;29;20033;-87
2020/12/09 04:51:57;;;;;;;23.07;12.17;;;4.70;75.00;;;;;;4915052;29;20020;-86
2020/12/09 04:54:45;;;;;;;26.45;11.90;;;4.60;74.90;;;;;;4919195;29;20389;-90
2020/12/09 04:57:31;;;;;;;24.15;11.18;;;4.60;74.90;;;;;;4902216;29;20485;-84
2020/12/09 05:00:03;;;;;;;23.88;11.88;;;4.60;75.50;;;;;;4898800;29;20017;-84
2020/12/09 05:02:48;;;;;;;20.40;9.77;;;4.60;75.40;;;;;;4897605;29;20084;-84
2020/12/09 05:05:19;;;;;;;28.77;13.90;;;4.60;75.50;;;;;;4903903;29;20048;-86
2020/12/09 05:07:47;;;;;;;27.33;12.60;;;4.60;75.80;;;;;;4920941;29;20271;-89
2020/12/09 05:10:15;;;;;;;21.35;11.20;;;4.70;75.80;;;;;;4899136;29;20075;-87
2020/12/09 05:12:43;;;;;;;23.92;10.70;;;4.70;75.60;;;;;;4899209;29;20104;-85
2020/12/09 05:15:17;;;;;;;24.88;11.35;;;4.70;75.60;;;;;;4915696;29;20028;-86
2020/12/09 05:18:08;;;;;;;23.48;10.75;;;4.70;75.50;;;;;;4914587;29;20044;-85
2020/12/09 05:20:37;;;;;;;26.15;11.77;;;4.70;75.80;;;;;;4914589;29;20055;-82
2020/12/09 05:23:05;;;;;;;23.35;10.68;;;4.70;75.40;;;;;;4915934;29;20031;-83
2020/12/09 05:25:32;;;;;;;24.55;11.88;;;4.70;75.60;;;;;;4902088;29;20029;-83
2020/12/09 05:27:59;;;;;;;24.52;11.98;;;4.80;75.80;;;;;;4898691;29;20039;-83
2020/12/09 05:30:45;;;;;;;25.70;12.57;;;4.80;75.60;;;;;;4919110;29;20064;-83
2020/12/09 05:33:17;;;;;;;28.38;12.02;;;4.80;75.40;;;;;;4917435;29;20537;-83
2020/12/09 05:35:53;;;;;;;26.00;11.85;;;4.80;75.60;;;;;;4901593;29;20095;-83
2020/12/09 05:38:19;;;;;;;23.60;12.23;;;4.80;75.70;;;;;;4917763;29;20134;-83
2020/12/09 05:40:46;;;;;;;26.17;11.02;;;4.80;75.70;;;;;;4886196;29;20493;-83
2020/12/09 05:43:14;;;;;;;23.17;11.15;;;4.80;75.60;;;;;;4887029;29;20036;-83
2020/12/09 05:45:40;;;;;;;23.85;10.32;;;4.80;75.60;;;;;;4920923;29;20044;-83
2020/12/09 05:48:17;;;;;;;23.08;10.25;;;4.90;75.80;;;;;;4918809;29;20040;-83
2020/12/09 05:50:54;;;;;;;21.23;10.32;;;4.80;75.60;;;;;;4899216;29;20025;-83
2020/12/09 05:53:34;;;;;;;23.92;11.48;;;4.80;75.60;;;;;;4918164;29;20032;-83
2020/12/09 05:56:10;;;;;;;21.23;9.68;;;4.80;75.50;;;;;;4900548;29;20036;-83
2020/12/09 05:58:42;;;;;;;25.55;10.68;;;4.80;75.60;;;;;;4916980;29;20028;-84
2020/12/09 06:01:17;;;;;;;22.88;10.43;;;4.80;75.60;;;;;;4901506;29;20421;-84
2020/12/09 06:03:45;;;;;;;24.58;11.05;;;4.80;75.50;;;;;;4918295;29;20417;-83
2020/12/09 06:06:12;;;;;;;18.65;9.23;;;4.70;75.40;;;;;;4885900;29;20028;-83
2020/12/09 06:08:44;;;;;;;21.00;8.52;;;4.80;75.40;;;;;;4901550;29;20024;-83
2020/12/09 06:11:12;;;;;;;20.52;9.80;;;4.70;75.40;;;;;;4916925;29;20079;-84
2020/12/09 06:13:37;;;;;;;24.90;11.32;;;4.60;75.30;;;;;;4901942;29;20164;-83
2020/12/09 06:16:05;;;;;;;26.30;11.57;;;4.70;75.80;;;;;;4900862;29;20126;-85
2020/12/09 06:18:32;;;;;;;23.80;11.50;;;4.70;76.10;;;;;;4885744;29;20100;-84
2020/12/09 06:20:59;;;;;;;25.40;12.05;;;4.80;75.90;;;;;;4916586;29;20016;-85
2020/12/09 06:23:27;;;;;;;27.23;12.60;;;4.80;76.20;;;;;;4916681;29;20127;-83
2020/12/09 06:25:58;;;;;;;22.98;11.18;;;4.90;76.30;;;;;;4901885;29;20024;-82
2020/12/09 06:28:26;;;;;;;26.08;11.65;;;4.90;76.10;;;;;;4917252;29;20075;-83
2020/12/09 06:30:54;;;;;;;24.85;11.52;;;5.00;76.10;;;;;;4900737;29;20028;-81
2020/12/09 06:33:31;;;;;;;23.83;11.10;;;5.00;76.10;;;;;;4897533;29;20032;-81
2020/12/09 06:36:16;;;;;;;23.67;11.13;;;5.00;76.10;;;;;;4915953;29;20501;-80
2020/12/09 06:39:05;;;;;;;25.67;10.40;;;5.00;75.70;;;;;;4900802;29;20035;-80
2020/12/09 06:41:35;;;;;;;22.67;9.93;;;5.00;75.80;;;;;;4915385;29;20108;-80
2020/12/09 06:44:03;;;;;;;22.98;10.52;;;5.00;75.70;;;;;;4900971;29;20028;-80
2020/12/09 06:46:41;;;;;;;23.90;10.93;;;5.00;75.70;;;;;;4900412;29;20024;-80
2020/12/09 06:49:28;;;;;;;25.80;11.48;;;5.10;75.70;;;;;;4916117;29;20051;-80
2020/12/09 06:51:56;;;;;;;27.75;12.25;;;4.90;75.50;;;;;;4915231;29;20083;-81
2020/12/09 06:54:39;;;;;;;18.77;8.07;;;5.00;75.70;;;;;;4900694;29;20465;-83
2020/12/09 06:57:35;;;;;;;32.08;12.85;;;4.80;75.40;;;;;;4900001;29;20032;-84
2020/12/09 07:00:18;;;;;;;24.48;8.27;;;4.80;75.80;;;;;;4916124;29;20031;-83
2020/12/09 07:02:49;;;;;;;26.90;11.82;;;4.80;75.70;;;;;;4897638;29;20068;-85
2020/12/09 07:05:18;;;;;;;23.90;11.60;;;4.80;75.70;;;;;;4915889;29;20065;-84
2020/12/09 07:07:50;;;;;;;20.40;9.85;;;4.80;75.80;;;;;;4901175;29;20020;-88
2020/12/09 07:10:21;;;;;;;21.52;10.82;;;4.80;75.50;;;;;;4914590;29;20111;-93
2020/12/09 07:12:50;;;;;;;23.65;11.05;;;4.70;75.40;;;;;;4901586;29;20024;-89
2020/12/09 07:15:16;;;;;;;21.48;9.68;;;4.70;75.60;;;;;;4916758;29;20021;-94
2020/12/09 07:17:42;;;;;;;24.40;10.20;;;4.70;75.50;;;;;;4886381;29;20040;-94
2020/12/09 07:20:09;;;;;;;23.67;10.68;;;4.60;75.30;;;;;;4898469;29;20048;-90
2020/12/09 07:22:37;;;;;;;16.65;7.55;;;4.60;75.40;;;;;;4920752;29;20028;-90
2020/12/09 07:25:03;;;;;;;18.40;8.38;;;4.60;75.30;;;;;;4928235;29;20475;-86
2020/12/09 07:27:29;;;;;;;23.15;10.65;;;4.50;75.40;;;;;;4927481;29;20048;-86
2020/12/09 07:30:03;;;;;;;13.38;6.00;;;4.70;75.70;;;;;;4909139;29;20032;-84
2020/12/09 07:32:28;;;;;;;16.25;7.78;;;4.50;75.40;;;;;;4908973;29;20106;-85
2020/12/09 07:35:04;;;;;;;25.08;11.05;;;4.50;75.50;;;;;;4917143;29;20112;-90
2020/12/09 07:37:35;;;;;;;25.60;10.38;;;4.40;75.60;;;;;;4927892;29;20090;-91
2020/12/09 07:40:22;;;;;;;11.00;5.82;;;4.50;75.60;;;;;;4930728;29;20381;-91
2020/12/09 07:43:03;;;;;;;20.73;9.88;;;4.40;75.40;;;;;;4912111;29;20083;-92
2020/12/09 07:45:29;;;;;;;25.00;11.60;;;4.40;75.60;;;;;;4909365;29;20032;-89
2020/12/09 07:48:08;;;;;;;11.85;5.47;;;4.50;76.00;;;;;;4902857;29;20028;-91
2020/12/09 07:50:35;;;;;;;16.95;7.38;;;4.40;75.50;;;;;;4918288;29;20036;-92
2020/12/09 07:53:01;;;;;;;26.08;11.73;;;4.40;75.50;;;;;;4928902;29;20384;-91
2020/12/09 07:55:27;;;;;;;22.75;9.88;;;4.40;75.60;;;;;;4924496;29;20075;-91
2020/12/09 07:58:04;;;;;;;24.02;10.88;;;4.40;75.80;;;;;;4898626;29;20068;-91
2020/12/09 08:00:41;;;;;;;23.50;11.02;;;4.30;75.90;;;;;;4907884;29;20031;-91
2020/12/09 08:03:19;;;;;;;29.85;12.77;;;4.30;75.90;;;;;;4928640;29;20095;-88
2020/12/09 08:05:45;;;;;;;22.92;10.95;;;4.30;76.20;;;;;;4929592;29;20016;-86
2020/12/09 08:08:14;;;;;;;21.27;10.63;;;4.40;76.10;;;;;;4895383;29;20032;-87
2020/12/09 08:10:43;;;;;;;17.48;7.72;;;4.40;76.40;;;;;;4929474;29;20028;-88
2020/12/09 08:13:15;;;;;;;22.10;8.65;;;4.50;76.00;;;;;;4920381;29;20051;-87
2020/12/09 08:15:43;;;;;;;12.05;5.18;;;4.40;76.00;;;;;;4926051;29;20442;-87
2020/12/09 08:18:20;;;;;;;20.65;10.25;;;4.40;76.20;;;;;;4924811;29;20035;-88
2020/12/09 08:20:48;;;;;;;24.50;10.52;;;4.50;75.90;;;;;;4903710;29;20028;-88
2020/12/09 08:23:14;;;;;;;23.75;10.15;;;4.40;75.80;;;;;;4920088;29;20024;-88
2020/12/09 08:25:51;;;;;;;17.13;6.45;;;4.50;76.30;;;;;;4916601;29;20020;-88
2020/12/09 08:28:22;;;;;;;22.02;10.80;;;4.50;76.30;;;;;;4900541;29;20033;-83
2020/12/09 08:30:49;;;;;;;27.65;13.35;;;4.50;76.30;;;;;;4885724;29;20499;-87
2020/12/09 08:33:29;;;;;;;21.80;10.30;;;4.50;76.30;;;;;;4919714;29;20032;-90
2020/12/09 08:35:58;;;;;;;19.45;7.93;;;4.60;76.30;;;;;;4904214;29;20024;-89
2020/12/09 08:38:27;;;;;;;23.30;9.23;;;4.50;76.30;;;;;;4917032;29;20028;-89
2020/12/09 08:40:55;;;;;;;24.88;10.98;;;4.60;76.40;;;;;;4898626;29;20120;-89
2020/12/09 08:43:26;;;;;;;26.08;10.10;;;4.70;76.30;;;;;;4920554;29;20118;-89
2020/12/09 08:45:52;;;;;;;28.23;13.15;;;4.60;76.00;;;;;;4915983;29;20377;-89
2020/12/09 08:48:19;;;;;;;25.33;11.98;;;4.70;76.40;;;;;;4919355;29;20444;-88
2020/12/09 08:50:45;;;;;;;24.83;10.65;;;4.60;76.40;;;;;;4919135;29;20024;-89
2020/12/09 08:53:11;;;;;;;34.05;13.15;;;4.70;76.60;;;;;;4921372;29;20023;-86
2020/12/09 08:55:37;;;;;;;24.13;11.07;;;4.70;76.30;;;;;;4912165;29;20028;-87
2020/12/09 08:58:03;;;;;;;24.83;10.32;;;4.70;76.20;;;;;;4922822;29;20044;-86
2020/12/09 09:00:28;;;;;;;31.15;13.27;;;4.60;76.40;;;;;;4904407;29;20385;-89
2020/12/09 09:02:56;;;;;;;19.55;10.07;;;4.60;76.50;;;;;;4911880;29;20040;-88
2020/12/09 09:05:22;;;;;;;22.23;10.23;;;4.60;76.40;;;;;;4894839;29;20032;-89
2020/12/09 09:07:48;;;;;;;27.90;11.75;;;4.70;76.20;;;;;;4923261;29;20019;-88
2020/12/09 09:10:14;;;;;;;28.38;12.30;;;4.60;76.50;;;;;;4907659;29;20028;-88
2020/12/09 09:12:39;;;;;;;24.38;11.43;;;4.70;76.70;;;;;;4900725;29;20039;-88
2020/12/09 09:15:05;;;;;;;26.85;12.50;;;4.80;76.90;;;;;;4890902;29;20031;-88
2020/12/09 09:17:31;;;;;;;25.50;11.77;;;4.80;76.60;;;;;;4904966;29;20051;-87
2020/12/09 09:19:58;;;;;;;27.25;13.05;;;4.90;76.70;;;;;;4902817;29;20059;-93
2020/12/09 09:22:24;;;;;;;30.20;13.13;;;5.10;77.00;;;;;;4904746;29;20040;-92
2020/12/09 09:24:50;;;;;;;32.70;14.80;;;5.10;76.70;;;;;;4904160;29;20020;-86
2020/12/09 09:27:16;;;;;;;22.13;9.30;;;5.00;77.00;;;;;;4915077;29;20028;-84
2020/12/09 09:29:42;;;;;;;26.20;12.10;;;4.90;76.20;;;;;;4927363;29;20099;-92
2020/12/09 09:32:08;;;;;;;31.20;13.88;;;4.80;76.10;;;;;;4906999;29;20056;-89
2020/12/09 09:34:34;;;;;;;31.70;13.55;;;4.90;76.40;;;;;;4922190;29;20516;-89
2020/12/09 09:37:00;;;;;;;24.60;11.93;;;4.90;77.10;;;;;;4892941;29;20115;-87
2020/12/09 09:39:26;;;;;;;26.73;12.35;;;4.80;76.20;;;;;;4911075;29;20040;-87
2020/12/09 09:41:57;;;;;;;31.15;13.75;;;4.80;76.40;;;;;;4892769;29;20488;-90
2020/12/09 09:44:23;;;;;;;29.13;14.13;;;4.90;76.80;;;;;;4929968;29;20103;-85
2020/12/09 09:46:49;;;;;;;29.63;12.80;;;5.00;77.00;;;;;;4903492;29;20176;-87
2020/12/09 09:49:15;;;;;;;32.05;12.77;;;5.00;77.20;;;;;;4902835;29;20392;-90
2020/12/09 09:51:41;;;;;;;28.27;13.38;;;5.10;77.00;;;;;;4921205;29;20032;-88
2020/12/09 09:54:06;;;;;;;31.23;13.40;;;5.20;76.70;;;;;;4888680;29;20041;-88
2020/12/09 09:56:32;;;;;;;26.60;12.32;;;5.10;76.30;;;;;;4923072;29;20058;-88
2020/12/09 09:58:57;;;;;;;31.52;13.60;;;5.10;76.50;;;;;;4888363;29;20028;-88
2020/12/09 10:01:23;;;;;;;27.33;12.32;;;5.20;76.80;;;;;;4905882;29;20382;-85
2020/12/09 10:03:49;;;;;;;31.05;14.40;;;5.10;76.70;;;;;;4921078;29;20020;-85
2020/12/09 10:06:14;;;;;;;31.27;13.68;;;5.10;76.60;;;;;;4889546;29;20024;-84
2020/12/09 10:08:40;;;;;;;30.17;13.63;;;5.10;76.40;;;;;;4889303;29;20068;-85
2020/12/09 10:11:05;;;;;;;29.50;14.27;;;5.10;76.40;;;;;;4890903;29;20059;-86
2020/12/09 10:13:31;;;;;;;27.05;12.55;;;5.10;76.50;;;;;;4922434;29;20091;-86
2020/12/09 10:15:57;;;;;;;27.00;12.93;;;5.20;76.60;;;;;;4921865;29;20026;-85
2020/12/09 10:18:24;;;;;;;25.52;11.75;;;5.20;76.40;;;;;;4918886;29;20044;-87
2020/12/09 10:20:49;;;;;;;25.48;11.88;;;5.20;76.70;;;;;;4913532;29;20031;-87
2020/12/09 10:23:15;;;;;;;28.85;13.75;;;5.10;76.20;;;;;;4901269;29;20028;-85
2020/12/09 10:25:41;;;;;;;26.95;13.30;;;5.00;76.70;;;;;;4885955;29;20028;-86
2020/12/09 10:28:06;;;;;;;28.67;13.43;;;5.10;76.80;;;;;;4885825;29;20028;-85
2020/12/09 10:30:32;;;;;;;13.38;6.82;;;5.20;77.00;;;;;;4920383;29;20028;-87
2020/12/09 10:32:58;;;;;;;24.77;11.23;;;5.20;76.70;;;;;;4890719;29;20035;-87
2020/12/09 10:35:23;;;;;;;30.35;13.27;;;5.10;76.20;;;;;;4907177;29;20020;-87
2020/12/09 10:37:49;;;;;;;24.33;10.15;;;5.10;76.50;;;;;;4918242;29;20507;-87
2020/12/09 10:40:15;;;;;;;29.88;13.68;;;5.20;76.70;;;;;;4901017;29;20389;-87
2020/12/09 10:42:40;;;;;;;21.77;8.07;;;5.10;76.40;;;;;;4917062;29;20021;-87
2020/12/09 10:45:06;;;;;;;24.13;11.52;;;5.00;76.10;;;;;;4901364;29;20436;-87
2020/12/09 10:47:32;;;;;;;31.63;13.60;;;5.00;76.10;;;;;;4900867;29;20040;-88
2020/12/09 10:49:58;;;;;;;14.27;6.72;;;4.80;75.90;;;;;;4916610;29;20020;-86
2020/12/09 10:52:25;;;;;;;29.08;13.30;;;5.00;76.30;;;;;;4916771;29;20032;-86
2020/12/09 10:55:03;;;;;;;26.65;12.52;;;5.00;76.40;;;;;;4901139;29;20024;-94
2020/12/09 10:57:29;;;;;;;24.73;11.25;;;4.80;76.50;;;;;;4900689;29;20437;-88
2020/12/09 10:59:55;;;;;;;26.80;11.35;;;4.90;76.50;;;;;;4885110;29;20028;-84
2020/12/09 11:02:21;;;;;;;29.48;12.90;;;4.80;76.40;;;;;;4916289;29;20035;-84
2020/12/09 11:04:46;;;;;;;28.00;13.02;;;4.90;76.70;;;;;;4900380;29;20481;-87
2020/12/09 11:07:13;;;;;;;25.95;12.55;;;4.90;77.20;;;;;;4884617;29;20032;-88
2020/12/09 11:09:40;;;;;;;27.17;12.70;;;5.00;77.00;;;;;;4901455;29;20032;-88
2020/12/09 11:12:06;;;;;;;15.18;6.20;;;5.10;76.90;;;;;;4901414;29;20032;-91
2020/12/09 11:14:34;;;;;;;29.83;13.55;;;5.00;76.80;;;;;;4917458;29;20073;-86
2020/12/09 11:17:01;;;;;;;24.92;10.68;;;5.10;76.70;;;;;;4886401;29;20028;-91
2020/12/09 11:19:27;;;;;;;24.35;11.73;;;5.10;76.80;;;;;;4901703;29;20055;-93
2020/12/09 11:21:52;;;;;;;15.05;8.05;;;5.10;76.50;;;;;;4901363;29;20396;-87
2020/12/09 11:24:19;;;;;;;34.78;15.15;;;5.10;76.60;;;;;;4885625;29;20032;-88
2020/12/09 11:26:45;;;;;;;21.95;9.55;;;5.00;76.40;;;;;;4901054;29;20024;-87
2020/12/09 11:29:11;;;;;;;29.17;11.88;;;5.00;76.50;;;;;;4885230;29;20032;-88
2020/12/09 11:31:38;;;;;;;26.80;12.93;;;5.00;76.70;;;;;;4917311;29;20425;-89
2020/12/09 11:34:04;;;;;;;22.98;11.07;;;5.10;77.20;;;;;;4917198;29;20024;-85
2020/12/09 11:36:31;;;;;;;21.10;9.57;;;5.10;77.00;;;;;;4916787;29;20568;-89
2020/12/09 11:38:57;;;;;;;24.90;11.07;;;5.00;76.90;;;;;;4916926;29;20059;-93
2020/12/09 11:41:24;;;;;;;20.40;9.73;;;5.10;76.90;;;;;;4885982;29;20068;-93
2020/12/09 11:43:50;;;;;;;26.80;11.73;;;5.10;76.60;;;;;;4902351;29;20027;-92
2020/12/09 11:46:16;;;;;;;28.08;12.95;;;5.10;76.80;;;;;;4918217;29;20020;-94
2020/12/09 11:48:42;;;;;;;21.13;10.05;;;5.10;76.80;;;;;;4870795;29;20404;-92
2020/12/09 11:51:08;;;;;;;21.33;9.40;;;5.00;76.60;;;;;;4917371;29;20433;-90
2020/12/09 11:53:33;;;;;;;26.48;11.50;;;5.00;76.70;;;;;;4906713;29;20040;-92
2020/12/09 11:55:59;;;;;;;29.40;12.93;;;5.00;76.90;;;;;;4903953;29;20024;-91
2020/12/09 11:58:25;;;;;;;26.70;12.63;;;5.00;76.30;;;;;;4888656;29;20163;-92
2020/12/09 12:00:50;;;;;;;26.40;13.43;;;4.90;76.70;;;;;;4916019;29;20031;-82
2020/12/09 12:03:16;;;;;;;30.27;13.18;;;4.90;76.40;;;;;;4915335;29;20032;-88
2020/12/09 12:05:43;;;;;;;28.75;13.50;;;5.00;76.80;;;;;;4915377;29;20032;-89
2020/12/09 12:08:08;;;;;;;24.80;11.68;;;4.90;76.80;;;;;;4885168;29;20048;-88
2020/12/09 12:10:34;;;;;;;21.90;10.30;;;4.90;76.70;;;;;;4884695;29;20458;-89
2020/12/09 12:13:00;;;;;;;28.60;12.15;;;5.00;76.90;;;;;;4915891;29;20084;-89
2020/12/09 12:15:26;;;;;;;24.15;11.68;;;4.90;77.00;;;;;;4884769;29;20123;-89
2020/12/09 12:17:52;;;;;;;25.63;11.55;;;5.10;77.00;;;;;;4915782;29;20074;-92
2020/12/09 12:20:17;;;;;;;27.35;10.75;;;5.00;76.60;;;;;;4905260;29;20400;-91
2020/12/09 12:22:43;;;;;;;25.90;12.77;;;4.90;76.40;;;;;;4900717;29;20028;-91
2020/12/09 12:25:10;;;;;;;28.30;13.35;;;4.90;76.40;;;;;;4900424;29;20032;-87
2020/12/09 12:27:35;;;;;;;24.83;11.93;;;4.90;76.40;;;;;;4915769;29;20115;-89
2020/12/09 12:30:04;;;;;;;27.85;13.32;;;4.90;76.50;;;;;;4884514;29;20115;-86
2020/12/09 12:32:30;;;;;;;27.23;12.93;;;4.90;77.00;;;;;;4916216;29;20453;-89
2020/12/09 12:34:55;;;;;;;26.55;12.68;;;4.80;76.60;;;;;;4903856;29;20028;-88
2020/12/09 12:37:21;;;;;;;8.63;4.20;;;4.90;76.80;;;;;;4919026;29;20040;-85
2020/12/09 12:39:47;;;;;;;30.40;14.13;;;4.80;76.50;;;;;;4919177;29;20020;-86
2020/12/09 12:42:12;;;;;;;20.02;9.00;;;4.80;76.40;;;;;;4918817;29;20469;-85
2020/12/09 12:44:38;;;;;;;26.90;11.48;;;4.70;76.20;;;;;;4919129;29;20111;-88